Time;durP1;ratioP1;P1;durP2;ratioP2;P2;SDS_P1;SDS_P2;PMS_P1;PMS_P2;Temp;Humidity;BMP_temperature;BMP_pressure;BME280_temperature;BME280_humidity;BME280_pressure;Samples;Min_cycle;Max_cycle;Signal;HPM_P1;HPM_P2
2024/01/26 00:01:42;;;;;;;28.57;7.17;;;;;;;;;;6086289;23;20190;-92
2024/01/26 00:04:49;;;;;;;24.97;7.60;;;;;;;;;;6085406;23;20178;-93
2024/01/26 00:07:55;;;;;;;34.60;8.67;;;;;;;;;;6085625;23;20243;-90
2024/01/26 00:11:00;;;;;;;25.23;6.97;;;;;;;;;;6087211;23;20171;-91
2024/01/26 00:14:07;;;;;;;27.13;7.63;;;;;;;;;;6088107;23;20178;-90
2024/01/26 00:17:13;;;;;;;26.30;7.17;;;;;;;;;;6090928;23;20175;-90
2024/01/26 00:20:20;;;;;;;33.03;8.43;;;;;;;;;;6090340;23;20195;-90
2024/01/26 00:23:26;;;;;;;37.60;7.63;;;;;;;;;;6092170;23;20153;-91
2024/01/26 00:26:31;;;;;;;26.93;7.57;;;;;;;;;;6089209;23;20154;-91
2024/01/26 00:29:37;;;;;;;37.40;6.93;;;;;;;;;;6091228;23;20225;-91
2024/01/26 00:32:44;;;;;;;31.23;7.20;;;;;;;;;;6091648;23;20153;-93
2024/01/26 00:35:51;;;;;;;31.93;7.13;;;;;;;;;;6091208;23;20202;-92
2024/01/26 00:38:56;;;;;;;25.00;6.80;;;;;;;;;;6089320;23;20215;-92
2024/01/26 00:42:02;;;;;;;26.10;7.20;;;;;;;;;;6091694;23;20196;-89
2024/01/26 00:45:09;;;;;;;25.47;6.93;;;;;;;;;;6090595;23;20174;-91
2024/01/26 00:48:14;;;;;;;23.57;6.23;;;;;;;;;;6091703;23;20171;-93
2024/01/26 00:51:23;;;;;;;23.67;6.83;;;;;;;;;;6092048;23;20175;-92
2024/01/26 00:54:28;;;;;;;30.10;6.97;;;;;;;;;;6090328;23;20174;-92
2024/01/26 00:57:34;;;;;;;25.70;6.20;;;;;;;;;;6088020;23;20158;-91
2024/01/26 01:00:40;;;;;;;31.90;6.80;;;;;;;;;;6089239;23;20174;-90
2024/01/26 01:03:45;;;;;;;41.80;11.93;;;;;;;;;;6088819;23;20258;-92
2024/01/26 01:06:53;;;;;;;18.07;6.00;;;;;;;;;;6088534;23;20212;-92
2024/01/26 01:09:58;;;;;;;26.43;6.83;;;;;;;;;;6089191;23;20174;-92
2024/01/26 01:13:05;;;;;;;26.10;6.17;;;;;;;;;;6088742;23;20199;-91
2024/01/26 01:16:12;;;;;;;23.50;6.00;;;;;;;;;;6089673;23;20235;-91
2024/01/26 01:19:19;;;;;;;25.93;6.30;;;;;;;;;;6088690;23;20166;-92
2024/01/26 01:22:27;;;;;;;25.80;6.10;;;;;;;;;;6089753;23;20217;-90
2024/01/26 01:25:38;;;;;;;29.67;6.47;;;;;;;;;;6089629;23;20158;-94
2024/01/26 01:41:25;;;;;;;21.93;6.07;;;;;;;;;;6031581;23;20376;-91
2024/01/26 01:44:22;;;;;;;17.90;5.10;;;;;;;;;;6109474;23;20218;-93
2024/01/26 01:47:28;;;;;;;19.60;6.70;;;;;;;;;;6115829;23;20270;-92
2024/01/26 01:50:33;;;;;;;21.00;6.07;;;;;;;;;;6114144;23;20195;-91
2024/01/26 01:53:39;;;;;;;24.57;6.27;;;;;;;;;;6114254;23;20170;-92
2024/01/26 01:56:47;;;;;;;24.17;5.43;;;;;;;;;;6115956;23;20189;-91
2024/01/26 01:59:52;;;;;;;19.50;6.07;;;;;;;;;;6113347;23;20157;-91
2024/01/26 02:02:59;;;;;;;19.33;6.23;;;;;;;;;;6115375;23;20222;-94
2024/01/26 02:06:04;;;;;;;22.50;5.67;;;;;;;;;;6116006;23;20286;-92
2024/01/26 02:09:10;;;;;;;25.13;6.03;;;;;;;;;;6116239;23;20162;-92
2024/01/26 02:12:17;;;;;;;24.93;6.13;;;;;;;;;;6114004;23;20177;-91
2024/01/26 02:15:22;;;;;;;25.10;6.57;;;;;;;;;;6113539;23;20574;-94
2024/01/26 02:18:28;;;;;;;20.30;5.70;;;;;;;;;;6115179;23;20162;-93
2024/01/26 02:21:33;;;;;;;25.50;6.20;;;;;;;;;;6113262;23;20234;-92
2024/01/26 02:24:40;;;;;;;20.77;5.90;;;;;;;;;;6115309;23;20149;-91
2024/01/26 02:27:45;;;;;;;21.50;5.50;;;;;;;;;;6114270;23;20162;-92
2024/01/26 02:30:51;;;;;;;27.83;6.73;;;;;;;;;;6114118;23;20178;-91
2024/01/26 02:33:56;;;;;;;22.17;5.50;;;;;;;;;;6116009;23;20146;-92
2024/01/26 02:37:02;;;;;;;23.50;6.23;;;;;;;;;;6113844;23;20194;-91
2024/01/26 02:40:10;;;;;;;26.63;6.40;;;;;;;;;;6115008;23;20153;-92
2024/01/26 02:43:15;;;;;;;21.40;6.13;;;;;;;;;;6115042;23;20193;-93
2024/01/26 02:46:20;;;;;;;26.63;7.00;;;;;;;;;;6113450;23;20247;-93
2024/01/26 02:49:26;;;;;;;21.50;6.70;;;;;;;;;;6114845;23;20149;-92
2024/01/26 02:52:31;;;;;;;23.10;6.63;;;;;;;;;;6113414;23;20169;-92
2024/01/26 02:55:39;;;;;;;25.77;7.00;;;;;;;;;;6115334;23;20190;-92
2024/01/26 02:58:44;;;;;;;22.10;6.40;;;;;;;;;;6115250;23;20183;-92
2024/01/26 03:01:50;;;;;;;24.00;6.73;;;;;;;;;;6115323;23;20211;-92
2024/01/26 03:04:58;;;;;;;26.63;7.40;;;;;;;;;;6116881;23;20150;-94
2024/01/26 03:08:03;;;;;;;30.17;7.00;;;;;;;;;;6116035;23;20170;-92
2024/01/26 03:11:13;;;;;;;32.30;7.30;;;;;;;;;;6115061;23;20540;-92
2024/01/26 03:14:19;;;;;;;22.97;6.63;;;;;;;;;;6115987;23;20174;-91
2024/01/26 03:17:24;;;;;;;29.57;8.23;;;;;;;;;;6115755;23;20169;-91
2024/01/26 03:20:30;;;;;;;25.17;7.13;;;;;;;;;;6115430;23;20194;-92
2024/01/26 03:23:36;;;;;;;24.80;6.40;;;;;;;;;;6115504;23;20169;-91
2024/01/26 03:26:44;;;;;;;24.13;6.83;;;;;;;;;;6114895;23;20637;-92
2024/01/26 03:29:49;;;;;;;26.97;7.53;;;;;;;;;;6115343;23;20174;-91
2024/01/26 03:32:55;;;;;;;27.70;7.30;;;;;;;;;;6113588;23;20170;-91
2024/01/26 03:36:01;;;;;;;25.00;7.90;;;;;;;;;;6115111;23;20222;-91
2024/01/26 03:39:09;;;;;;;23.10;6.80;;;;;;;;;;6116342;23;20150;-91
2024/01/26 03:42:16;;;;;;;24.67;7.73;;;;;;;;;;6115183;23;20225;-90
2024/01/26 03:45:21;;;;;;;33.27;7.70;;;;;;;;;;6116009;23;20195;-91
2024/01/26 03:48:26;;;;;;;24.03;6.40;;;;;;;;;;6114301;23;20213;-90
2024/01/26 03:51:31;;;;;;;24.27;7.00;;;;;;;;;;6113809;23;20175;-91
2024/01/26 03:54:37;;;;;;;30.57;7.70;;;;;;;;;;6114605;23;20150;-93
2024/01/26 03:57:43;;;;;;;25.43;7.20;;;;;;;;;;6113614;23;20625;-92
2024/01/26 04:00:48;;;;;;;26.37;7.37;;;;;;;;;;6114132;23;20173;-91
2024/01/26 04:03:54;;;;;;;68.60;25.77;;;;;;;;;;6112857;23;20185;-89
2024/01/26 04:06:59;;;;;;;88.00;29.80;;;;;;;;;;6112734;23;20202;-91
2024/01/26 04:10:06;;;;;;;27.10;7.53;;;;;;;;;;6113030;23;20183;-93
2024/01/26 04:13:13;;;;;;;25.10;7.73;;;;;;;;;;6112764;23;20237;-93
2024/01/26 04:16:18;;;;;;;29.30;7.10;;;;;;;;;;6113416;23;20185;-92
2024/01/26 04:19:23;;;;;;;31.17;7.33;;;;;;;;;;6112797;23;20211;-92
2024/01/26 04:22:30;;;;;;;30.90;7.57;;;;;;;;;;6112449;23;20158;-91
2024/01/26 04:25:35;;;;;;;22.30;7.03;;;;;;;;;;6113999;23;20227;-93
2024/01/26 04:28:42;;;;;;;33.73;8.03;;;;;;;;;;6114144;23;20218;-93
2024/01/26 04:31:47;;;;;;;32.07;8.47;;;;;;;;;;6113243;23;20166;-92
2024/01/26 04:34:52;;;;;;;36.50;8.07;;;;;;;;;;6111086;23;20161;-94
2024/01/26 04:37:58;;;;;;;27.50;7.27;;;;;;;;;;6112888;23;20158;-94
2024/01/26 04:41:05;;;;;;;24.63;7.63;;;;;;;;;;6114195;23;20174;-93
2024/01/26 04:44:11;;;;;;;32.50;7.77;;;;;;;;;;6114718;23;20223;-95
2024/01/26 04:47:16;;;;;;;26.13;7.43;;;;;;;;;;6114153;23;20173;-93
2024/01/26 04:50:24;;;;;;;27.83;7.87;;;;;;;;;;6113902;23;20157;-92
2024/01/26 04:53:32;;;;;;;22.97;7.90;;;;;;;;;;6112938;23;20174;-93
2024/01/26 04:56:38;;;;;;;25.90;7.53;;;;;;;;;;6113976;23;20184;-94
2024/01/26 04:59:45;;;;;;;27.97;8.33;;;;;;;;;;6115460;23;20214;-92
2024/01/26 05:02:50;;;;;;;23.77;7.73;;;;;;;;;;6113026;23;20170;-93
2024/01/26 05:05:56;;;;;;;31.83;8.10;;;;;;;;;;6113871;23;20177;-92
2024/01/26 05:09:02;;;;;;;29.87;8.40;;;;;;;;;;6113859;23;20186;-93
2024/01/26 05:12:09;;;;;;;28.03;7.80;;;;;;;;;;6113662;23;20153;-93
2024/01/26 05:15:16;;;;;;;25.37;7.63;;;;;;;;;;6114074;23;20173;-94
2024/01/26 05:18:21;;;;;;;23.97;7.33;;;;;;;;;;6115185;23;20202;-94
2024/01/26 05:21:27;;;;;;;24.93;8.00;;;;;;;;;;6113227;23;20276;-92
2024/01/26 05:24:32;;;;;;;25.83;8.17;;;;;;;;;;6110747;23;20174;-93
2024/01/26 05:27:37;;;;;;;27.03;7.70;;;;;;;;;;6110448;23;20170;-92
2024/01/26 06:14:46;;;;;;;23.07;8.03;;;;;;;;;;6081608;23;20206;-92
2024/01/26 06:17:51;;;;;;;17.23;7.87;;;;;;;;;;6088772;23;20264;-93
2024/01/26 06:20:57;;;;;;;23.17;8.73;;;;;;;;;;6091824;23;20166;-91
2024/01/26 06:24:02;;;;;;;29.10;9.47;;;;;;;;;;6088221;23;20172;-93
2024/01/26 06:27:08;;;;;;;27.53;9.77;;;;;;;;;;6089053;23;20207;-94
2024/01/26 06:30:20;;;;;;;26.73;8.63;;;;;;;;;;6090530;23;20158;-94
2024/01/26 06:33:26;;;;;;;22.20;8.00;;;;;;;;;;6083243;23;20157;-93
2024/01/26 06:36:33;;;;;;;24.10;8.13;;;;;;;;;;6086762;23;20182;-93
2024/01/26 06:39:40;;;;;;;23.47;8.70;;;;;;;;;;6088477;23;20178;-92
2024/01/26 06:42:45;;;;;;;24.20;8.07;;;;;;;;;;6090687;23;20170;-92
2024/01/26 06:45:52;;;;;;;22.97;8.80;;;;;;;;;;6086205;23;20174;-93
2024/01/26 06:48:57;;;;;;;25.70;8.00;;;;;;;;;;6085893;23;20167;-93
2024/01/26 06:52:09;;;;;;;34.73;8.97;;;;;;;;;;6087872;23;20163;-94
2024/01/26 06:55:14;;;;;;;23.43;8.67;;;;;;;;;;6088406;23;20166;-91
2024/01/26 06:58:20;;;;;;;18.70;8.40;;;;;;;;;;6087290;23;20242;-91
2024/01/26 07:01:27;;;;;;;20.50;8.00;;;;;;;;;;6091025;23;20172;-94
2024/01/26 07:04:33;;;;;;;27.20;8.77;;;;;;;;;;6089188;23;20194;-91
2024/01/26 07:07:40;;;;;;;25.37;8.77;;;;;;;;;;6086040;23;20698;-91
2024/01/26 07:10:46;;;;;;;24.70;9.17;;;;;;;;;;6090933;23;20175;-90
2024/01/26 07:13:51;;;;;;;23.73;9.40;;;;;;;;;;6086415;23;20190;-91
2024/01/26 07:16:58;;;;;;;25.53;9.83;;;;;;;;;;6086412;23;20198;-91
2024/01/26 07:20:05;;;;;;;28.67;9.90;;;;;;;;;;6092541;23;20212;-92
2024/01/26 07:23:13;;;;;;;28.53;9.93;;;;;;;;;;6090441;23;20215;-88
2024/01/26 07:26:24;;;;;;;33.90;10.10;;;;;;;;;;6089202;23;20166;-90
2024/01/26 07:29:29;;;;;;;28.13;10.03;;;;;;;;;;6090742;23;20170;-90
2024/01/26 10:13:00;;;;;;;21.20;10.37;;;;;;;;;;6092779;23;20694;-92
2024/01/26 10:16:06;;;;;;;23.00;10.00;;;;;;;;;;6084674;23;20170;-90
2024/01/26 10:19:21;;;;;;;25.60;10.67;;;;;;;;;;6086842;23;20290;-89
2024/01/26 10:39:55;;;;;;;18.83;9.63;;;;;;;;;;6029961;23;20203;-90
2024/01/26 10:43:00;;;;;;;25.90;9.63;;;;;;;;;;6086662;23;20150;-91
2024/01/26 10:46:07;;;;;;;18.70;9.90;;;;;;;;;;6087972;23;20167;-92
2024/01/26 10:49:14;;;;;;;23.42;10.30;;;;;;;;;;6086255;23;20195;-93
2024/01/26 10:52:19;;;;;;;28.15;10.52;;;;;;;;;;6085920;23;20219;-92
2024/01/26 10:55:43;;;;;;;19.25;9.23;;;;;;;;;;6086835;23;20170;-93
2024/01/26 10:58:50;;;;;;;23.40;9.85;;;;;;;;;;6086416;23;20622;-90
2024/01/26 11:02:17;;;;;;;27.20;9.60;;;;;;;;;;6089256;23;20178;-91
2024/01/26 11:05:24;;;;;;;23.45;9.55;;;;;;;;;;6088806;23;20155;-91
2024/01/26 11:08:38;;;;;;;19.10;9.77;;;;;;;;;;6084927;23;20171;-90
2024/01/26 11:11:45;;;;;;;21.02;9.98;;;;;;;;;;6087033;23;20154;-91
2024/01/26 11:15:04;;;;;;;21.98;9.23;;;;;;;;;;6088678;23;20182;-91
2024/01/26 11:18:09;;;;;;;20.33;9.47;;;;;;;;;;6085897;23;20202;-92
2024/01/26 11:21:20;;;;;;;21.37;9.43;;;;;;;;;;6087073;23;20227;-92
2024/01/26 11:24:26;;;;;;;21.60;9.73;;;;;;;;;;6086528;23;20196;-92
2024/01/26 11:27:37;;;;;;;18.25;8.80;;;;;;;;;;6087147;23;20252;-92
2024/01/26 11:30:43;;;;;;;25.42;10.65;;;;;;;;;;6087609;23;20183;-94
2024/01/26 11:33:49;;;;;;;19.00;9.95;;;;;;;;;;6086053;23;20171;-93
2024/01/26 11:37:08;;;;;;;17.13;9.05;;;;;;;;;;6084463;23;20198;-93
2024/01/26 11:40:14;;;;;;;20.30;9.98;;;;;;;;;;6088224;23;20255;-93
2024/01/26 11:43:25;;;;;;;23.48;9.73;;;;;;;;;;6086313;23;20175;-92
2024/01/26 11:46:32;;;;;;;28.10;12.07;;;;;;;;;;6088665;23;20171;-93
2024/01/26 11:49:38;;;;;;;16.75;9.13;;;;;;;;;;6087374;23;20174;-94
2024/01/26 11:52:44;;;;;;;17.02;7.82;;;;;;;;;;6086951;23;20174;-91
2024/01/26 11:55:51;;;;;;;18.45;9.02;;;;;;;;;;6085182;23;20232;-91
2024/01/26 11:58:59;;;;;;;20.17;9.30;;;;;;;;;;6083580;23;20303;-90
2024/01/26 12:02:05;;;;;;;18.08;8.63;;;;;;;;;;6086671;23;20166;-94
2024/01/26 12:05:11;;;;;;;24.60;9.48;;;;;;;;;;6086759;23;20245;-93
2024/01/26 15:48:43;;;;;;;33.22;16.60;;;;;;;;;;6064024;23;20218;-92
2024/01/26 15:51:49;;;;;;;49.03;23.20;;;;;;;;;;6090766;23;20211;-93
2024/01/26 15:54:57;;;;;;;39.50;18.88;;;;;;;;;;6091458;23;20155;-92
2024/01/26 15:58:12;;;;;;;39.47;18.88;;;;;;;;;;6091568;23;20224;-93
2024/01/26 16:01:19;;;;;;;36.83;18.60;;;;;;;;;;6075696;23;20171;-92
2024/01/26 16:04:28;;;;;;;37.30;17.83;;;;;;;;;;6091566;23;20198;-93
2024/01/26 16:07:35;;;;;;;38.63;18.67;;;;;;;;;;6090580;23;20182;-92
2024/01/26 16:10:47;;;;;;;105.35;43.30;;;;;;;;;;6091592;23;20195;-94
2024/01/26 16:14:01;;;;;;;37.90;18.08;;;;;;;;;;6091325;23;20212;-92
2024/01/26 16:17:09;;;;;;;44.08;21.05;;;;;;;;;;6074850;23;20189;-92
2024/01/26 22:39:47;;;;;;;5.20;2.00;;;;;;;;;;6041380;23;20214;-91
2024/01/26 22:42:54;;;;;;;5.67;1.60;;;;;;;;;;6088138;23;20743;-93
2024/01/26 22:46:00;;;;;;;3.60;1.77;;;;;;;;;;6088528;23;20170;-92
2024/01/26 22:49:06;;;;;;;4.50;1.93;;;;;;;;;;6089189;23;20211;-90
2024/01/26 22:52:13;;;;;;;4.87;1.77;;;;;;;;;;6092201;23;20191;-90
2024/01/26 22:55:35;;;;;;;5.37;1.90;;;;;;;;;;6092200;23;20174;-91
2024/01/26 22:58:43;;;;;;;5.53;2.20;;;;;;;;;;6090016;23;20247;-91
2024/01/26 23:01:50;;;;;;;6.67;2.00;;;;;;;;;;6089251;23;20187;-91
2024/01/26 23:04:56;;;;;;;4.60;2.07;;;;;;;;;;6089254;23;20171;-90
2024/01/26 23:08:02;;;;;;;7.93;2.10;;;;;;;;;;6089653;23;20170;-92
2024/01/26 23:11:07;;;;;;;4.10;1.60;;;;;;;;;;6088639;23;20175;-92
2024/01/26 23:14:15;;;;;;;7.67;2.00;;;;;;;;;;6087771;23;20196;-93
2024/01/26 23:20:40;;;;;;;5.20;1.80;;;;;;;;;;6089818;23;20155;-90
2024/01/26 23:23:45;;;;;;;5.30;1.50;;;;;;;;;;6087000;23;20199;-92
2024/01/26 23:26:51;;;;;;;6.80;1.60;;;;;;;;;;6088362;23;20191;-91
2024/01/26 23:29:58;;;;;;;6.30;1.70;;;;;;;;;;6086175;23;20170;-90
2024/01/26 23:33:05;;;;;;;7.73;1.90;;;;;;;;;;6087265;23;20176;-90
2024/01/26 23:36:11;;;;;;;7.93;1.87;;;;;;;;;;6087156;23;20200;-92
2024/01/26 23:39:17;;;;;;;4.87;1.80;;;;;;;;;;6087900;23;20205;-94
2024/01/26 23:42:23;;;;;;;5.33;1.93;;;;;;;;;;6090410;23;20219;-93
2024/01/26 23:45:30;;;;;;;5.80;1.80;;;;;;;;;;6085874;23;20166;-91
2024/01/26 23:48:36;;;;;;;9.67;1.93;;;;;;;;;;6087554;23;20174;-92
2024/01/26 23:51:41;;;;;;;6.57;1.93;;;;;;;;;;6086032;23;20170;-92
2024/01/26 23:54:47;;;;;;;5.73;1.90;;;;;;;;;;6086774;23;20219;-91
2024/01/26 23:57:52;;;;;;;13.13;1.90;;;;;;;;;;6086367;23;20224;-91
